sensor_id;sensor_type;location;lat;lon;timestamp;temperature;humidity
68485;DHT22;55472;50.060;21.960;2023-07-13T00:01:31;20.30;86.10
68485;DHT22;55472;50.060;21.960;2023-07-13T00:03:59;20.30;86.20
68485;DHT22;55472;50.060;21.960;2023-07-13T00:06:27;20.30;86.40
68485;DHT22;55472;50.060;21.960;2023-07-13T00:08:59;20.20;86.50
68485;DHT22;55472;50.060;21.960;2023-07-13T00:11:25;20.20;86.90
68485;DHT22;55472;50.060;21.960;2023-07-13T00:13:51;20.20;86.60
68485;DHT22;55472;50.060;21.960;2023-07-13T00:16:17;20.10;87.20
68485;DHT22;55472;50.060;21.960;2023-07-13T00:18:45;20.10;87.10
68485;DHT22;55472;50.060;21.960;2023-07-13T00:21:12;20.00;87.40
68485;DHT22;55472;50.060;21.960;2023-07-13T00:23:40;20.10;87.10
68485;DHT22;55472;50.060;21.960;2023-07-13T00:26:09;20.10;87.30
68485;DHT22;55472;50.060;21.960;2023-07-13T00:28:37;20.10;87.10
68485;DHT22;55472;50.060;21.960;2023-07-13T00:31:03;20.00;87.30
68485;DHT22;55472;50.060;21.960;2023-07-13T00:33:29;20.00;87.10
68485;DHT22;55472;50.060;21.960;2023-07-13T00:35:56;20.10;87.20
68485;DHT22;55472;50.060;21.960;2023-07-13T00:38:23;20.00;87.30
68485;DHT22;55472;50.060;21.960;2023-07-13T00:40:49;20.00;87.10
68485;DHT22;55472;50.060;21.960;2023-07-13T00:43:18;20.00;87.10
68485;DHT22;55472;50.060;21.960;2023-07-13T00:48:20;20.00;87.50
68485;DHT22;55472;50.060;21.960;2023-07-13T00:50:52;20.00;87.30
68485;DHT22;55472;50.060;21.960;2023-07-13T00:53:20;20.00;87.20
68485;DHT22;55472;50.060;21.960;2023-07-13T00:55:48;20.00;87.20
68485;DHT22;55472;50.060;21.960;2023-07-13T00:58:16;20.10;87.20
68485;DHT22;55472;50.060;21.960;2023-07-13T01:00:43;20.00;87.40
68485;DHT22;55472;50.060;21.960;2023-07-13T01:03:10;20.10;87.20
68485;DHT22;55472;50.060;21.960;2023-07-13T01:05:36;20.00;87.40
68485;DHT22;55472;50.060;21.960;2023-07-13T01:08:03;20.00;87.50
68485;DHT22;55472;50.060;21.960;2023-07-13T01:10:31;20.00;87.50
68485;DHT22;55472;50.060;21.960;2023-07-13T01:13:06;20.00;87.20
68485;DHT22;55472;50.060;21.960;2023-07-13T01:15:41;19.90;87.30
68485;DHT22;55472;50.060;21.960;2023-07-13T01:18:26;19.90;87.20
68485;DHT22;55472;50.060;21.960;2023-07-13T01:20:59;19.90;87.20
68485;DHT22;55472;50.060;21.960;2023-07-13T01:23:27;19.80;87.80
68485;DHT22;55472;50.060;21.960;2023-07-13T01:25:55;19.80;88.10
68485;DHT22;55472;50.060;21.960;2023-07-13T01:28:22;19.80;88.20
68485;DHT22;55472;50.060;21.960;2023-07-13T01:30:54;19.80;88.40
68485;DHT22;55472;50.060;21.960;2023-07-13T01:33:23;19.80;88.30
68485;DHT22;55472;50.060;21.960;2023-07-13T01:35:49;19.80;88.00
68485;DHT22;55472;50.060;21.960;2023-07-13T01:38:18;19.80;88.00
68485;DHT22;55472;50.060;21.960;2023-07-13T01:40:46;19.80;88.50
68485;DHT22;55472;50.060;21.960;2023-07-13T01:43:12;19.80;88.40
68485;DHT22;55472;50.060;21.960;2023-07-13T01:45:38;19.80;88.00
68485;DHT22;55472;50.060;21.960;2023-07-13T01:48:05;19.80;87.90
68485;DHT22;55472;50.060;21.960;2023-07-13T01:50:33;19.80;87.90
68485;DHT22;55472;50.060;21.960;2023-07-13T01:53:00;19.80;88.10
68485;DHT22;55472;50.060;21.960;2023-07-13T01:55:26;19.80;88.20
68485;DHT22;55472;50.060;21.960;2023-07-13T01:57:53;19.70;88.40
68485;DHT22;55472;50.060;21.960;2023-07-13T02:00:19;19.80;88.70
68485;DHT22;55472;50.060;21.960;2023-07-13T02:02:45;19.80;88.80
68485;DHT22;55472;50.060;21.960;2023-07-13T02:05:12;19.80;89.10
68485;DHT22;55472;50.060;21.960;2023-07-13T02:07:39;19.80;89.50
68485;DHT22;55472;50.060;21.960;2023-07-13T02:10:06;19.80;89.70
68485;DHT22;55472;50.060;21.960;2023-07-13T02:12:34;19.80;89.70
68485;DHT22;55472;50.060;21.960;2023-07-13T02:15:00;19.90;89.80
68485;DHT22;55472;50.060;21.960;2023-07-13T02:17:27;19.90;89.90
68485;DHT22;55472;50.060;21.960;2023-07-13T02:19:53;19.90;89.70
68485;DHT22;55472;50.060;21.960;2023-07-13T02:22:20;19.90;89.90
68485;DHT22;55472;50.060;21.960;2023-07-13T02:24:47;19.90;89.80
68485;DHT22;55472;50.060;21.960;2023-07-13T02:27:13;19.90;90.00
68485;DHT22;55472;50.060;21.960;2023-07-13T02:29:39;19.90;89.90
68485;DHT22;55472;50.060;21.960;2023-07-13T02:32:06;19.90;89.90
68485;DHT22;55472;50.060;21.960;2023-07-13T02:34:33;19.90;90.00
68485;DHT22;55472;50.060;21.960;2023-07-13T02:36:59;20.00;90.00
68485;DHT22;55472;50.060;21.960;2023-07-13T02:39:26;20.00;90.00
68485;DHT22;55472;50.060;21.960;2023-07-13T02:41:52;20.00;90.00
68485;DHT22;55472;50.060;21.960;2023-07-13T02:44:18;20.00;90.30
68485;DHT22;55472;50.060;21.960;2023-07-13T02:46:44;20.00;90.20
68485;DHT22;55472;50.060;21.960;2023-07-13T02:49:10;20.00;90.30
68485;DHT22;55472;50.060;21.960;2023-07-13T02:51:37;20.00;90.10
68485;DHT22;55472;50.060;21.960;2023-07-13T02:54:04;20.00;89.90
68485;DHT22;55472;50.060;21.960;2023-07-13T02:56:31;20.00;89.70
68485;DHT22;55472;50.060;21.960;2023-07-13T02:58:58;20.00;89.80
68485;DHT22;55472;50.060;21.960;2023-07-13T03:01:24;20.00;89.80
68485;DHT22;55472;50.060;21.960;2023-07-13T03:03:52;20.00;89.90
68485;DHT22;55472;50.060;21.960;2023-07-13T03:06:19;20.10;89.90
68485;DHT22;55472;50.060;21.960;2023-07-13T03:08:47;20.00;89.80
68485;DHT22;55472;50.060;21.960;2023-07-13T03:11:17;20.00;89.90
68485;DHT22;55472;50.060;21.960;2023-07-13T03:13:44;20.00;89.90
68485;DHT22;55472;50.060;21.960;2023-07-13T03:16:11;20.10;90.00
68485;DHT22;55472;50.060;21.960;2023-07-13T03:18:38;20.10;90.10
68485;DHT22;55472;50.060;21.960;2023-07-13T03:21:05;20.10;90.10
68485;DHT22;55472;50.060;21.960;2023-07-13T03:23:31;20.10;90.10
68485;DHT22;55472;50.060;21.960;2023-07-13T03:28:34;20.10;90.10
68485;DHT22;55472;50.060;21.960;2023-07-13T03:31:03;20.10;90.20
68485;DHT22;55472;50.060;21.960;2023-07-13T03:33:30;20.10;90.10
68485;DHT22;55472;50.060;21.960;2023-07-13T03:35:57;20.20;90.10
68485;DHT22;55472;50.060;21.960;2023-07-13T03:38:23;20.20;90.40
68485;DHT22;55472;50.060;21.960;2023-07-13T03:40:49;20.20;90.70
68485;DHT22;55472;50.060;21.960;2023-07-13T03:43:15;20.20;91.00
68485;DHT22;55472;50.060;21.960;2023-07-13T03:45:42;20.20;91.50
68485;DHT22;55472;50.060;21.960;2023-07-13T03:48:08;20.10;91.90
68485;DHT22;55472;50.060;21.960;2023-07-13T03:50:34;20.10;92.00
68485;DHT22;55472;50.060;21.960;2023-07-13T03:53:00;20.10;92.20
68485;DHT22;55472;50.060;21.960;2023-07-13T03:55:26;20.10;92.50
68485;DHT22;55472;50.060;21.960;2023-07-13T03:58:44;20.10;92.60
68485;DHT22;55472;50.060;21.960;2023-07-13T04:00:53;20.10;92.70
68485;DHT22;55472;50.060;21.960;2023-07-13T04:03:19;20.10;92.80
68485;DHT22;55472;50.060;21.960;2023-07-13T04:05:46;20.10;93.00
68485;DHT22;55472;50.060;21.960;2023-07-13T04:08:12;20.10;93.90
68485;DHT22;55472;50.060;21.960;2023-07-13T04:10:39;20.10;94.30
68485;DHT22;55472;50.060;21.960;2023-07-13T04:13:06;20.10;94.60
68485;DHT22;55472;50.060;21.960;2023-07-13T04:15:32;20.10;95.10
68485;DHT22;55472;50.060;21.960;2023-07-13T04:17:59;20.10;95.30
68485;DHT22;55472;50.060;21.960;2023-07-13T04:20:26;20.20;95.00
68485;DHT22;55472;50.060;21.960;2023-07-13T04:22:52;20.20;94.90
68485;DHT22;55472;50.060;21.960;2023-07-13T04:25:20;20.20;94.70
68485;DHT22;55472;50.060;21.960;2023-07-13T04:27:46;20.20;94.40
68485;DHT22;55472;50.060;21.960;2023-07-13T04:30:13;20.20;93.90
68485;DHT22;55472;50.060;21.960;2023-07-13T04:32:39;20.20;93.80
68485;DHT22;55472;50.060;21.960;2023-07-13T04:35:05;20.20;93.90
68485;DHT22;55472;50.060;21.960;2023-07-13T04:37:32;20.20;94.00
68485;DHT22;55472;50.060;21.960;2023-07-13T04:39:58;20.20;93.70
68485;DHT22;55472;50.060;21.960;2023-07-13T04:42:24;20.20;94.10
68485;DHT22;55472;50.060;21.960;2023-07-13T04:44:51;20.10;94.20
68485;DHT22;55472;50.060;21.960;2023-07-13T04:47:17;20.10;94.00
68485;DHT22;55472;50.060;21.960;2023-07-13T04:49:45;20.10;93.70
68485;DHT22;55472;50.060;21.960;2023-07-13T04:52:11;20.10;92.60
68485;DHT22;55472;50.060;21.960;2023-07-13T04:54:38;20.10;92.20
68485;DHT22;55472;50.060;21.960;2023-07-13T04:57:05;20.20;92.50
68485;DHT22;55472;50.060;21.960;2023-07-13T04:59:32;20.20;91.70
68485;DHT22;55472;50.060;21.960;2023-07-13T05:01:59;20.20;91.60
68485;DHT22;55472;50.060;21.960;2023-07-13T05:04:25;20.30;91.40
68485;DHT22;55472;50.060;21.960;2023-07-13T05:06:51;20.30;91.30
68485;DHT22;55472;50.060;21.960;2023-07-13T05:09:17;20.20;91.60
68485;DHT22;55472;50.060;21.960;2023-07-13T05:11:43;20.20;91.70
68485;DHT22;55472;50.060;21.960;2023-07-13T05:14:10;20.20;91.70
68485;DHT22;55472;50.060;21.960;2023-07-13T05:16:36;20.20;91.70
68485;DHT22;55472;50.060;21.960;2023-07-13T05:19:02;20.30;91.40
68485;DHT22;55472;50.060;21.960;2023-07-13T05:21:29;20.30;90.90
68485;DHT22;55472;50.060;21.960;2023-07-13T05:23:55;20.30;90.90
68485;DHT22;55472;50.060;21.960;2023-07-13T05:26:21;20.30;90.90
68485;DHT22;55472;50.060;21.960;2023-07-13T05:28:48;20.30;90.40
68485;DHT22;55472;50.060;21.960;2023-07-13T05:31:14;20.40;90.20
68485;DHT22;55472;50.060;21.960;2023-07-13T05:33:40;20.50;90.10
68485;DHT22;55472;50.060;21.960;2023-07-13T05:36:06;20.60;90.20
68485;DHT22;55472;50.060;21.960;2023-07-13T05:38:33;20.70;89.90
68485;DHT22;55472;50.060;21.960;2023-07-13T05:40:59;20.80;89.40
68485;DHT22;55472;50.060;21.960;2023-07-13T05:43:25;20.90;89.10
68485;DHT22;55472;50.060;21.960;2023-07-13T05:45:56;21.00;89.70
68485;DHT22;55472;50.060;21.960;2023-07-13T05:48:23;21.00;88.80
68485;DHT22;55472;50.060;21.960;2023-07-13T05:50:49;21.10;88.90
68485;DHT22;55472;50.060;21.960;2023-07-13T05:53:15;21.30;88.60
68485;DHT22;55472;50.060;21.960;2023-07-13T05:55:43;21.30;88.00
68485;DHT22;55472;50.060;21.960;2023-07-13T05:58:11;21.40;87.30
68485;DHT22;55472;50.060;21.960;2023-07-13T06:00:37;21.40;87.10
68485;DHT22;55472;50.060;21.960;2023-07-13T06:03:05;21.50;87.10
68485;DHT22;55472;50.060;21.960;2023-07-13T06:05:33;21.60;87.10
68485;DHT22;55472;50.060;21.960;2023-07-13T06:08:00;21.60;86.40
68485;DHT22;55472;50.060;21.960;2023-07-13T06:10:26;21.70;85.90
68485;DHT22;55472;50.060;21.960;2023-07-13T06:12:52;21.70;85.80
68485;DHT22;55472;50.060;21.960;2023-07-13T06:15:18;21.80;85.90
68485;DHT22;55472;50.060;21.960;2023-07-13T06:17:45;21.90;85.90
68485;DHT22;55472;50.060;21.960;2023-07-13T06:20:11;22.00;85.90
68485;DHT22;55472;50.060;21.960;2023-07-13T06:22:37;22.10;85.00
68485;DHT22;55472;50.060;21.960;2023-07-13T06:25:03;22.20;85.10
68485;DHT22;55472;50.060;21.960;2023-07-13T06:27:30;22.40;85.10
68485;DHT22;55472;50.060;21.960;2023-07-13T06:29:56;22.50;84.10
68485;DHT22;55472;50.060;21.960;2023-07-13T06:32:22;22.60;83.30
68485;DHT22;55472;50.060;21.960;2023-07-13T06:34:48;22.70;82.90
68485;DHT22;55472;50.060;21.960;2023-07-13T06:37:15;22.80;83.00
68485;DHT22;55472;50.060;21.960;2023-07-13T06:39:41;23.00;83.10
68485;DHT22;55472;50.060;21.960;2023-07-13T06:42:07;23.10;82.30
68485;DHT22;55472;50.060;21.960;2023-07-13T06:44:33;23.10;81.90
68485;DHT22;55472;50.060;21.960;2023-07-13T06:46:59;23.20;81.70
68485;DHT22;55472;50.060;21.960;2023-07-13T06:49:25;23.30;81.20
68485;DHT22;55472;50.060;21.960;2023-07-13T06:51:52;23.30;80.10
68485;DHT22;55472;50.060;21.960;2023-07-13T06:54:18;23.30;79.90
68485;DHT22;55472;50.060;21.960;2023-07-13T06:56:44;23.30;80.30
68485;DHT22;55472;50.060;21.960;2023-07-13T06:59:10;23.20;80.80
68485;DHT22;55472;50.060;21.960;2023-07-13T07:01:36;23.20;80.60
68485;DHT22;55472;50.060;21.960;2023-07-13T07:04:03;23.30;80.90
68485;DHT22;55472;50.060;21.960;2023-07-13T07:06:30;23.30;81.10
68485;DHT22;55472;50.060;21.960;2023-07-13T07:08:56;23.40;80.80
68485;DHT22;55472;50.060;21.960;2023-07-13T07:11:24;23.40;80.70
68485;DHT22;55472;50.060;21.960;2023-07-13T07:13:52;23.50;80.40
68485;DHT22;55472;50.060;21.960;2023-07-13T07:16:21;23.60;78.90
68485;DHT22;55472;50.060;21.960;2023-07-13T07:18:47;23.70;79.50
68485;DHT22;55472;50.060;21.960;2023-07-13T07:21:14;23.70;79.00
68485;DHT22;55472;50.060;21.960;2023-07-13T07:23:41;23.80;79.40
68485;DHT22;55472;50.060;21.960;2023-07-13T07:26:08;23.90;79.40
68485;DHT22;55472;50.060;21.960;2023-07-13T07:28:35;24.00;79.10
68485;DHT22;55472;50.060;21.960;2023-07-13T07:31:02;24.10;78.60
68485;DHT22;55472;50.060;21.960;2023-07-13T07:33:28;24.10;77.40
68485;DHT22;55472;50.060;21.960;2023-07-13T07:35:55;24.20;77.40
68485;DHT22;55472;50.060;21.960;2023-07-13T07:38:21;24.30;77.30
68485;DHT22;55472;50.060;21.960;2023-07-13T07:40:47;24.40;77.20
68485;DHT22;55472;50.060;21.960;2023-07-13T07:43:14;24.50;76.60
68485;DHT22;55472;50.060;21.960;2023-07-13T07:45:40;24.50;76.60
68485;DHT22;55472;50.060;21.960;2023-07-13T07:48:07;24.50;76.20
68485;DHT22;55472;50.060;21.960;2023-07-13T07:50:35;24.50;76.00
68485;DHT22;55472;50.060;21.960;2023-07-13T07:53:02;24.50;75.90
68485;DHT22;55472;50.060;21.960;2023-07-13T07:55:29;24.50;75.80
68485;DHT22;55472;50.060;21.960;2023-07-13T07:57:57;24.60;76.30
68485;DHT22;55472;50.060;21.960;2023-07-13T08:00:23;24.70;76.10
68485;DHT22;55472;50.060;21.960;2023-07-13T08:02:49;24.80;76.10
68485;DHT22;55472;50.060;21.960;2023-07-13T08:05:15;25.10;75.10
68485;DHT22;55472;50.060;21.960;2023-07-13T08:07:41;25.30;75.00
68485;DHT22;55472;50.060;21.960;2023-07-13T08:10:08;25.60;73.00
68485;DHT22;55472;50.060;21.960;2023-07-13T08:12:39;25.90;71.90
68485;DHT22;55472;50.060;21.960;2023-07-13T08:15:10;26.10;72.60
68485;DHT22;55472;50.060;21.960;2023-07-13T08:17:39;26.20;70.30
68485;DHT22;55472;50.060;21.960;2023-07-13T08:20:06;26.30;71.90
68485;DHT22;55472;50.060;21.960;2023-07-13T08:22:32;26.60;71.80
68485;DHT22;55472;50.060;21.960;2023-07-13T08:24:59;26.80;70.70
68485;DHT22;55472;50.060;21.960;2023-07-13T08:27:27;27.10;69.90
68485;DHT22;55472;50.060;21.960;2023-07-13T08:29:54;27.40;67.80
68485;DHT22;55472;50.060;21.960;2023-07-13T08:32:21;27.70;67.40
68485;DHT22;55472;50.060;21.960;2023-07-13T08:34:49;28.00;67.20
68485;DHT22;55472;50.060;21.960;2023-07-13T08:37:15;28.20;65.40
68485;DHT22;55472;50.060;21.960;2023-07-13T08:39:42;28.40;65.90
68485;DHT22;55472;50.060;21.960;2023-07-13T08:42:37;28.50;65.00
68485;DHT22;55472;50.060;21.960;2023-07-13T08:47:48;28.80;63.30
68485;DHT22;55472;50.060;21.960;2023-07-13T08:50:23;29.00;63.50
68485;DHT22;55472;50.060;21.960;2023-07-13T08:52:56;29.10;63.10
68485;DHT22;55472;50.060;21.960;2023-07-13T08:55:33;29.10;62.00
68485;DHT22;55472;50.060;21.960;2023-07-13T08:58:16;28.90;62.60
68485;DHT22;55472;50.060;21.960;2023-07-13T09:09:55;29.30;58.70
68485;DHT22;55472;50.060;21.960;2023-07-13T09:15:34;31.40;55.50
68485;DHT22;55472;50.060;21.960;2023-07-13T09:18:09;32.50;52.30
68485;DHT22;55472;50.060;21.960;2023-07-13T09:20:44;33.50;50.70
68485;DHT22;55472;50.060;21.960;2023-07-13T09:23:20;34.20;49.10
68485;DHT22;55472;50.060;21.960;2023-07-13T09:25:49;34.80;47.90
68485;DHT22;55472;50.060;21.960;2023-07-13T09:28:29;35.40;46.50
68485;DHT22;55472;50.060;21.960;2023-07-13T09:31:20;35.80;45.40
68485;DHT22;55472;50.060;21.960;2023-07-13T09:33:49;36.40;44.90
68485;DHT22;55472;50.060;21.960;2023-07-13T09:39:43;37.50;42.60
68485;DHT22;55472;50.060;21.960;2023-07-13T09:42:20;37.60;42.30
68485;DHT22;55472;50.060;21.960;2023-07-13T09:47:19;37.10;42.90
68485;DHT22;55472;50.060;21.960;2023-07-13T09:52:45;35.40;45.60
68485;DHT22;55472;50.060;21.960;2023-07-13T09:55:31;34.50;47.70
68485;DHT22;55472;50.060;21.960;2023-07-13T10:00:58;33.30;49.60
68485;DHT22;55472;50.060;21.960;2023-07-13T10:03:31;32.60;51.50
68485;DHT22;55472;50.060;21.960;2023-07-13T10:06:20;31.80;52.70
68485;DHT22;55472;50.060;21.960;2023-07-13T10:08:52;31.30;53.90
68485;DHT22;55472;50.060;21.960;2023-07-13T10:11:27;30.40;56.10
68485;DHT22;55472;50.060;21.960;2023-07-13T10:14:17;29.80;57.60
68485;DHT22;55472;50.060;21.960;2023-07-13T10:16:46;29.10;59.40
68485;DHT22;55472;50.060;21.960;2023-07-13T10:19:21;28.70;60.50
68485;DHT22;55472;50.060;21.960;2023-07-13T10:21:57;28.40;61.40
68485;DHT22;55472;50.060;21.960;2023-07-13T10:24:32;28.20;62.60
68485;DHT22;55472;50.060;21.960;2023-07-13T10:29:54;28.00;61.40
68485;DHT22;55472;50.060;21.960;2023-07-13T10:32:27;27.80;62.80
68485;DHT22;55472;50.060;21.960;2023-07-13T10:34:53;27.70;63.70
68485;DHT22;55472;50.060;21.960;2023-07-13T10:37:33;27.40;65.20
68485;DHT22;55472;50.060;21.960;2023-07-13T10:40:06;27.40;64.80
68485;DHT22;55472;50.060;21.960;2023-07-13T10:42:42;27.40;64.30
68485;DHT22;55472;50.060;21.960;2023-07-13T10:45:17;27.30;64.60
68485;DHT22;55472;50.060;21.960;2023-07-13T10:47:45;27.20;65.70
68485;DHT22;55472;50.060;21.960;2023-07-13T10:50:23;27.30;66.50
68485;DHT22;55472;50.060;21.960;2023-07-13T10:53:01;27.40;66.60
68485;DHT22;55472;50.060;21.960;2023-07-13T10:58:36;27.30;65.40
68485;DHT22;55472;50.060;21.960;2023-07-13T11:03:55;27.20;65.40
68485;DHT22;55472;50.060;21.960;2023-07-13T11:15:05;27.20;65.00
68485;DHT22;55472;50.060;21.960;2023-07-13T11:17:48;27.20;65.40
68485;DHT22;55472;50.060;21.960;2023-07-13T11:23:45;27.10;64.90
68485;DHT22;55472;50.060;21.960;2023-07-13T11:25:40;27.10;64.70
68485;DHT22;55472;50.060;21.960;2023-07-13T11:36:04;26.90;65.00
68485;DHT22;55472;50.060;21.960;2023-07-13T11:38:39;26.90;65.80
68485;DHT22;55472;50.060;21.960;2023-07-13T11:44:05;26.90;67.50
68485;DHT22;55472;50.060;21.960;2023-07-13T11:47:10;26.90;66.80
68485;DHT22;55472;50.060;21.960;2023-07-13T11:50:04;26.90;66.40
68485;DHT22;55472;50.060;21.960;2023-07-13T11:52:35;26.80;66.90
68485;DHT22;55472;50.060;21.960;2023-07-13T11:55:13;26.70;67.10
68485;DHT22;55472;50.060;21.960;2023-07-13T11:57:45;26.60;68.00
68485;DHT22;55472;50.060;21.960;2023-07-13T12:00:16;26.50;68.30
68485;DHT22;55472;50.060;21.960;2023-07-13T12:02:46;26.40;70.00
68485;DHT22;55472;50.060;21.960;2023-07-13T12:05:19;26.20;70.60
68485;DHT22;55472;50.060;21.960;2023-07-13T12:07:47;26.10;70.50
68485;DHT22;55472;50.060;21.960;2023-07-13T12:10:21;26.00;71.50
68485;DHT22;55472;50.060;21.960;2023-07-13T12:13:01;25.80;72.30
68485;DHT22;55472;50.060;21.960;2023-07-13T12:15:43;25.70;73.90
68485;DHT22;55472;50.060;21.960;2023-07-13T12:18:17;25.40;75.90
68485;DHT22;55472;50.060;21.960;2023-07-13T12:20:46;25.20;76.70
68485;DHT22;55472;50.060;21.960;2023-07-13T12:23:29;24.90;78.80
68485;DHT22;55472;50.060;21.960;2023-07-13T12:25:58;24.60;79.90
68485;DHT22;55472;50.060;21.960;2023-07-13T12:28:38;24.40;82.40
68485;DHT22;55472;50.060;21.960;2023-07-13T12:36:35;24.10;84.80
68485;DHT22;55472;50.060;21.960;2023-07-13T12:39:34;24.00;83.40
68485;DHT22;55472;50.060;21.960;2023-07-13T12:47:48;23.80;81.50
68485;DHT22;55472;50.060;21.960;2023-07-13T12:50:22;23.80;82.00
68485;DHT22;55472;50.060;21.960;2023-07-13T12:53:02;23.80;82.90
68485;DHT22;55472;50.060;21.960;2023-07-13T12:55:30;23.90;83.20
68485;DHT22;55472;50.060;21.960;2023-07-13T12:57:59;24.10;83.10
68485;DHT22;55472;50.060;21.960;2023-07-13T13:00:36;24.10;83.60
68485;DHT22;55472;50.060;21.960;2023-07-13T13:03:19;24.20;84.40
68485;DHT22;55472;50.060;21.960;2023-07-13T13:08:50;24.20;84.50
68485;DHT22;55472;50.060;21.960;2023-07-13T13:11:18;24.20;84.00
68485;DHT22;55472;50.060;21.960;2023-07-13T13:13:46;24.20;83.90
68485;DHT22;55472;50.060;21.960;2023-07-13T13:16:26;24.10;82.90
68485;DHT22;55472;50.060;21.960;2023-07-13T13:19:01;23.90;82.00
68485;DHT22;55472;50.060;21.960;2023-07-13T13:21:36;23.80;82.40
68485;DHT22;55472;50.060;21.960;2023-07-13T13:24:04;23.70;82.30
68485;DHT22;55472;50.060;21.960;2023-07-13T13:26:36;23.60;82.30
68485;DHT22;55472;50.060;21.960;2023-07-13T13:29:12;23.60;82.70
68485;DHT22;55472;50.060;21.960;2023-07-13T13:31:52;23.60;83.00
68485;DHT22;55472;50.060;21.960;2023-07-13T13:34:21;23.60;82.70
68485;DHT22;55472;50.060;21.960;2023-07-13T13:36:51;23.50;82.70
68485;DHT22;55472;50.060;21.960;2023-07-13T13:41:51;23.50;82.10
68485;DHT22;55472;50.060;21.960;2023-07-13T13:44:19;23.50;81.20
68485;DHT22;55472;50.060;21.960;2023-07-13T13:46:48;23.50;80.10
68485;DHT22;55472;50.060;21.960;2023-07-13T13:49:22;23.40;79.00
68485;DHT22;55472;50.060;21.960;2023-07-13T13:51:52;23.30;78.90
68485;DHT22;55472;50.060;21.960;2023-07-13T13:54:19;23.20;78.10
68485;DHT22;55472;50.060;21.960;2023-07-13T13:56:49;23.10;78.50
68485;DHT22;55472;50.060;21.960;2023-07-13T13:59:16;23.00;78.70
68485;DHT22;55472;50.060;21.960;2023-07-13T14:01:45;22.90;79.00
68485;DHT22;55472;50.060;21.960;2023-07-13T14:04:21;22.80;79.20
68485;DHT22;55472;50.060;21.960;2023-07-13T14:06:48;22.70;79.30
68485;DHT22;55472;50.060;21.960;2023-07-13T14:09:16;22.60;79.60
68485;DHT22;55472;50.060;21.960;2023-07-13T14:11:45;22.50;79.90
68485;DHT22;55472;50.060;21.960;2023-07-13T14:14:16;22.50;80.00
68485;DHT22;55472;50.060;21.960;2023-07-13T14:16:45;22.60;79.70
68485;DHT22;55472;50.060;21.960;2023-07-13T14:19:12;22.60;79.80
68485;DHT22;55472;50.060;21.960;2023-07-13T14:21:40;22.60;79.80
68485;DHT22;55472;50.060;21.960;2023-07-13T14:24:06;22.60;80.30
68485;DHT22;55472;50.060;21.960;2023-07-13T14:26:37;22.60;80.40
68485;DHT22;55472;50.060;21.960;2023-07-13T14:29:11;22.60;80.50
68485;DHT22;55472;50.060;21.960;2023-07-13T14:31:40;22.50;80.90
68485;DHT22;55472;50.060;21.960;2023-07-13T14:34:09;22.50;81.90
68485;DHT22;55472;50.060;21.960;2023-07-13T14:36:42;22.40;81.70
68485;DHT22;55472;50.060;21.960;2023-07-13T14:39:22;22.30;82.00
68485;DHT22;55472;50.060;21.960;2023-07-13T14:41:54;22.30;82.60
68485;DHT22;55472;50.060;21.960;2023-07-13T14:44:24;22.20;83.30
68485;DHT22;55472;50.060;21.960;2023-07-13T14:46:52;22.20;83.50
68485;DHT22;55472;50.060;21.960;2023-07-13T14:49:30;22.10;83.90
68485;DHT22;55472;50.060;21.960;2023-07-13T14:52:05;22.00;84.40
68485;DHT22;55472;50.060;21.960;2023-07-13T14:54:36;22.00;84.00
68485;DHT22;55472;50.060;21.960;2023-07-13T14:57:17;22.00;85.20
68485;DHT22;55472;50.060;21.960;2023-07-13T14:59:47;21.90;85.30
68485;DHT22;55472;50.060;21.960;2023-07-13T15:02:27;21.90;85.30
68485;DHT22;55472;50.060;21.960;2023-07-13T15:04:56;21.90;85.00
68485;DHT22;55472;50.060;21.960;2023-07-13T15:07:22;21.90;85.50
68485;DHT22;55472;50.060;21.960;2023-07-13T15:09:49;21.80;85.50
68485;DHT22;55472;50.060;21.960;2023-07-13T15:12:17;21.80;85.60
68485;DHT22;55472;50.060;21.960;2023-07-13T15:14:43;21.80;85.30
68485;DHT22;55472;50.060;21.960;2023-07-13T15:17:28;21.70;85.70
68485;DHT22;55472;50.060;21.960;2023-07-13T15:19:58;21.70;85.80
68485;DHT22;55472;50.060;21.960;2023-07-13T15:22:25;21.70;86.00
68485;DHT22;55472;50.060;21.960;2023-07-13T15:24:51;21.70;86.30
68485;DHT22;55472;50.060;21.960;2023-07-13T15:27:17;21.70;86.00
68485;DHT22;55472;50.060;21.960;2023-07-13T15:29:46;21.60;86.30
68485;DHT22;55472;50.060;21.960;2023-07-13T15:32:13;21.60;86.00
68485;DHT22;55472;50.060;21.960;2023-07-13T15:34:40;21.60;86.70
68485;DHT22;55472;50.060;21.960;2023-07-13T15:37:14;21.60;87.10
68485;DHT22;55472;50.060;21.960;2023-07-13T15:39:42;21.60;87.00
68485;DHT22;55472;50.060;21.960;2023-07-13T15:42:18;21.60;87.10
68485;DHT22;55472;50.060;21.960;2023-07-13T15:44:45;21.60;87.10
68485;DHT22;55472;50.060;21.960;2023-07-13T15:47:13;21.60;87.30
68485;DHT22;55472;50.060;21.960;2023-07-13T15:49:40;21.60;87.20
68485;DHT22;55472;50.060;21.960;2023-07-13T15:52:26;21.60;87.00
68485;DHT22;55472;50.060;21.960;2023-07-13T15:54:54;21.60;87.40
68485;DHT22;55472;50.060;21.960;2023-07-13T15:57:20;21.60;87.20
68485;DHT22;55472;50.060;21.960;2023-07-13T15:59:47;21.70;87.50
68485;DHT22;55472;50.060;21.960;2023-07-13T16:02:16;21.70;87.30
68485;DHT22;55472;50.060;21.960;2023-07-13T16:04:44;21.70;86.80
68485;DHT22;55472;50.060;21.960;2023-07-13T16:07:12;21.80;86.40
68485;DHT22;55472;50.060;21.960;2023-07-13T16:09:44;21.80;86.60
68485;DHT22;55472;50.060;21.960;2023-07-13T16:12:12;21.80;86.50
68485;DHT22;55472;50.060;21.960;2023-07-13T16:14:40;21.80;86.50
68485;DHT22;55472;50.060;21.960;2023-07-13T16:17:11;21.80;86.70
68485;DHT22;55472;50.060;21.960;2023-07-13T16:19:37;21.80;86.80
68485;DHT22;55472;50.060;21.960;2023-07-13T16:22:05;21.80;86.60
68485;DHT22;55472;50.060;21.960;2023-07-13T16:24:34;21.90;86.60
68485;DHT22;55472;50.060;21.960;2023-07-13T16:27:00;21.90;87.00
68485;DHT22;55472;50.060;21.960;2023-07-13T16:29:29;21.90;87.20
68485;DHT22;55472;50.060;21.960;2023-07-13T16:32:05;21.90;86.70
68485;DHT22;55472;50.060;21.960;2023-07-13T16:34:35;21.80;86.30
68485;DHT22;55472;50.060;21.960;2023-07-13T16:37:13;21.80;86.80
68485;DHT22;55472;50.060;21.960;2023-07-13T16:39:47;21.70;86.60
68485;DHT22;55472;50.060;21.960;2023-07-13T16:42:15;21.70;86.80
68485;DHT22;55472;50.060;21.960;2023-07-13T16:44:41;21.70;86.50
68485;DHT22;55472;50.060;21.960;2023-07-13T16:47:14;21.60;86.40
68485;DHT22;55472;50.060;21.960;2023-07-13T16:49:42;21.50;86.40